Time;durP1;ratioP1;P1;durP2;ratioP2;P2;SDS_P1;SDS_P2;PMS_P1;PMS_P2;Temp;Humidity;BMP_temperature;BMP_pressure;BME280_temperature;BME280_humidity;BME280_pressure;Samples;Min_cycle;Max_cycle;Signal;HPM_P1;HPM_P2
2021/05/08 00:00:49;;;;;;;1.85;1.38;;;;;;;21.46;20.87;98156.78;5051978;28;20022;-88
2021/05/08 00:03:15;;;;;;;1.90;1.20;;;;;;;21.29;21.16;98163.34;5042235;28;20109;-88
2021/05/08 00:05:41;;;;;;;4.68;0.80;;;;;;;20.78;21.64;98161.34;5055709;28;20057;-88
2021/05/08 00:08:07;;;;;;;1.80;0.80;;;;;;;21.16;21.31;98151.91;5038208;28;20048;-88
2021/05/08 00:10:33;;;;;;;1.25;0.75;;;;;;;20.29;22.38;98164.44;5040013;28;20395;-88
2021/05/08 00:12:59;;;;;;;2.47;1.40;;;;;;;19.84;23.02;98158.63;5049205;28;20033;-89
2021/05/08 00:15:26;;;;;;;2.65;1.20;;;;;;;20.66;22.17;98168.19;5055256;28;20493;-89
2021/05/08 00:17:53;;;;;;;2.75;1.25;;;;;;;20.81;21.78;98160.53;5052926;28;20048;-88
2021/05/08 00:20:19;;;;;;;2.90;1.33;;;;;;;20.67;22.41;98166.22;5050176;28;20033;-89
2021/05/08 00:22:45;;;;;;;2.13;1.17;;;;;;;20.57;22.34;98169.84;5053342;28;20037;-89
2021/05/08 00:25:12;;;;;;;2.03;1.45;;;;;;;21.08;21.55;98169.91;5055428;28;20037;-89
2021/05/08 00:27:38;;;;;;;2.40;1.63;;;;;;;20.86;22.35;98176.03;5052965;28;20036;-89
2021/05/08 00:30:06;;;;;;;1.75;1.30;;;;;;;21.45;21.54;98179.56;5038150;28;20029;-89
2021/05/08 00:32:32;;;;;;;4.82;2.00;;;;;;;20.73;22.62;98175.72;5053455;28;20108;-88
2021/05/08 00:34:58;;;;;;;3.30;1.98;;;;;;;20.53;22.76;98180.25;5051130;28;20057;-88
2021/05/08 00:37:24;;;;;;;4.80;1.92;;;;;;;20.15;22.82;98181.22;5046186;28;20037;-88
2021/05/08 00:39:51;;;;;;;5.55;1.83;;;;;;;17.95;25.89;98188.72;5048403;28;20547;-89
2021/05/08 00:42:17;;;;;;;2.30;1.52;;;;;;;19.49;24.74;98189.38;5054249;28;20059;-88
2021/05/08 00:44:43;;;;;;;3.83;1.85;;;;;;;20.56;23.14;98185.03;5054391;28;20083;-88
2021/05/08 00:47:11;;;;;;;3.88;2.10;;;;;;;20.23;23.24;98194.75;5051415;28;20065;-88
2021/05/08 00:49:38;;;;;;;4.07;1.65;;;;;;;19.74;24.14;98181.75;5052657;28;20466;-88
2021/05/08 00:52:05;;;;;;;5.32;2.40;;;;;;;19.32;24.72;98198.53;5052334;28;20044;-88
2021/05/08 00:54:32;;;;;;;7.57;3.00;;;;;;;18.51;25.96;98195.66;5043825;28;20124;-88
2021/05/08 00:57:00;;;;;;;4.25;2.00;;;;;;;18.86;25.49;98201.28;5051499;28;20037;-88
2021/05/08 00:59:26;;;;;;;5.32;2.08;;;;;;;19.16;25.26;98209.28;5051228;28;20136;-88
2021/05/08 01:01:52;;;;;;;2.40;1.50;;;;;;;20.69;23.28;98197.28;5043471;28;20068;-88
2021/05/08 01:04:18;;;;;;;3.85;1.92;;;;;;;21.04;22.98;98204.59;5028307;28;20039;-88
2021/05/08 01:06:44;;;;;;;3.47;2.10;;;;;;;20.90;22.84;98205.50;5036735;28;20041;-88
2021/05/08 01:09:10;;;;;;;3.28;1.70;;;;;;;20.37;23.60;98205.84;5055039;28;20029;-88
2021/05/08 01:11:37;;;;;;;3.72;1.77;;;;;;;20.85;23.15;98207.94;5047417;28;20041;-88
2021/05/08 01:14:05;;;;;;;1.85;1.38;;;;;;;20.70;23.26;98210.00;5053778;28;20398;-87
2021/05/08 01:16:31;;;;;;;3.13;1.85;;;;;;;21.69;21.99;98217.63;5052090;28;20087;-88
2021/05/08 01:18:58;;;;;;;3.60;1.52;;;;;;;21.71;22.05;98221.59;5053442;28;20036;-88
2021/05/08 01:21:24;;;;;;;1.98;1.40;;;;;;;20.18;23.86;98225.00;5041483;28;20033;-88
2021/05/08 01:23:51;;;;;;;2.13;1.73;;;;;;;20.18;23.49;98223.03;5048281;28;20037;-88
2021/05/08 01:26:18;;;;;;;1.73;1.27;;;;;;;20.55;23.45;98233.63;5053064;28;20036;-88
2021/05/08 01:28:44;;;;;;;2.40;1.60;;;;;;;21.47;22.45;98236.56;5052406;28;20557;-88
2021/05/08 01:31:12;;;;;;;14.43;2.67;;;;;;;20.12;24.27;98237.78;5047518;28;20087;-88
2021/05/08 01:33:39;;;;;;;3.63;1.58;;;;;;;20.68;23.23;98235.53;5048355;28;20029;-88
2021/05/08 01:36:05;;;;;;;2.75;1.75;;;;;;;21.63;22.14;98244.44;5054784;28;20060;-88
2021/05/08 01:38:32;;;;;;;2.13;1.10;;;;;;;21.22;22.27;98236.78;5045671;28;20078;-88
2021/05/08 01:41:01;;;;;;;1.90;1.15;;;;;;;20.95;22.91;98244.16;5035750;28;20032;-89
2021/05/08 01:43:27;;;;;;;1.98;1.40;;;;;;;21.68;22.04;98255.16;5052307;28;20060;-88
2021/05/08 01:45:54;;;;;;;1.60;1.20;;;;;;;21.17;22.72;98250.38;5053992;28;20037;-89
2021/05/08 01:48:20;;;;;;;2.08;1.58;;;;;;;21.11;22.85;98250.06;5042611;28;20044;-88
2021/05/08 01:50:47;;;;;;;2.67;1.13;;;;;;;21.06;23.06;98249.69;5034667;28;20041;-89
2021/05/08 01:53:13;;;;;;;3.08;1.50;;;;;;;21.37;22.52;98257.03;5051803;28;20033;-89
2021/05/08 01:55:39;;;;;;;1.55;1.30;;;;;;;21.10;22.50;98256.03;5041087;28;20037;-89
2021/05/08 01:58:06;;;;;;;4.55;1.77;;;;;;;21.62;22.16;98257.59;5049100;28;20033;-89
2021/05/08 02:00:35;;;;;;;4.25;2.05;;;;;;;21.14;22.80;98265.97;5053385;28;20036;-89
2021/05/08 02:03:03;;;;;;;3.80;1.63;;;;;;;21.65;22.08;98258.78;5034616;28;20032;-89
2021/05/08 02:05:33;;;;;;;1.60;1.00;;;;;;;20.34;22.91;98270.78;5035673;28;20471;-89
2021/05/08 02:08:04;;;;;;;3.30;1.75;;;;;;;20.87;23.06;98264.94;5036380;28;20029;-89
2021/05/08 02:10:40;;;;;;;;;;;;;;;21.45;22.66;98266.16;5037305;28;20029;-90
2021/05/08 02:13:07;;;;;;;2.53;2.05;;;;;;;21.25;22.59;98283.47;5041444;28;19932;-89
2021/05/08 02:15:34;;;;;;;3.97;1.65;;;;;;;21.11;22.94;98271.59;5034151;28;20044;-89
2021/05/08 02:18:00;;;;;;;2.65;1.52;;;;;;;21.76;22.13;98276.22;5045638;28;20033;-90
2021/05/08 02:20:28;;;;;;;2.70;1.40;;;;;;;21.79;21.92;98279.00;5051387;28;20501;-90
2021/05/08 02:22:56;;;;;;;3.35;1.73;;;;;;;21.53;22.18;98274.06;5030221;28;20034;-89
2021/05/08 02:25:22;;;;;;;5.72;1.98;;;;;;;20.76;22.84;98264.19;5053009;28;20107;-90
2021/05/08 02:27:48;;;;;;;2.78;1.40;;;;;;;20.91;22.92;98270.50;5046846;28;20155;-90
2021/05/08 02:30:23;;;;;;;2.85;1.45;;;;;;;21.55;22.24;98280.03;5031032;28;20037;-89
2021/05/08 02:32:50;;;;;;;2.60;1.77;;;;;;;21.40;22.07;98274.97;5042306;28;20030;-89
2021/05/08 02:35:17;;;;;;;1.65;1.20;;;;;;;22.10;21.40;98281.94;5050388;28;20033;-90
2021/05/08 02:37:43;;;;;;;1.45;1.08;;;;;;;22.19;21.24;98291.41;5046238;28;20111;-90
2021/05/08 02:40:18;;;;;;;1.50;1.02;;;;;;;21.40;22.12;98297.31;5045624;28;20033;-90
2021/05/08 02:42:45;;;;;;;1.83;1.10;;;;;;;22.19;21.24;98299.00;5046534;28;20380;-89
2021/05/08 02:45:12;;;;;;;2.80;1.17;;;;;;;22.68;20.75;98292.84;5053372;28;20021;-90
2021/05/08 02:47:40;;;;;;;1.50;0.80;;;;;;;21.79;21.40;98303.38;5049122;28;20037;-89
2021/05/08 02:50:07;;;;;;;3.40;1.35;;;;;;;21.35;21.85;98299.31;5045823;28;20041;-90
2021/05/08 02:52:34;;;;;;;1.70;1.05;;;;;;;21.21;22.28;98307.78;5046639;28;20029;-89
2021/05/08 02:55:00;;;;;;;1.95;0.90;;;;;;;21.66;21.80;98313.44;5034342;28;20505;-89
2021/05/08 02:57:26;;;;;;;0.93;0.80;;;;;;;21.78;21.73;98319.34;5041625;28;20037;-90
2021/05/08 02:59:52;;;;;;;1.48;1.10;;;;;;;22.33;21.16;98318.44;5040616;28;20055;-89
2021/05/08 03:02:18;;;;;;;1.98;1.20;;;;;;;21.92;21.63;98322.03;5034532;28;20063;-88
2021/05/08 03:04:45;;;;;;;1.92;1.10;;;;;;;22.64;20.84;98318.06;5036504;28;20029;-90
2021/05/08 03:07:11;;;;;;;2.10;1.35;;;;;;;22.72;20.81;98323.59;5049721;28;20551;-89
2021/05/08 03:09:37;;;;;;;1.63;1.27;;;;;;;22.50;20.86;98326.59;5039890;28;20106;-90
2021/05/08 03:12:04;;;;;;;2.13;1.23;;;;;;;22.81;20.63;98329.47;5047351;28;20087;-89
2021/05/08 03:14:30;;;;;;;1.58;1.35;;;;;;;21.74;21.59;98328.97;5040974;28;20029;-90
2021/05/08 03:16:57;;;;;;;1.52;1.05;;;;;;;22.08;21.48;98327.06;5049048;28;20115;-90
2021/05/08 03:19:24;;;;;;;1.92;1.38;;;;;;;21.58;22.10;98331.50;5048640;28;20029;-89
2021/05/08 03:21:50;;;;;;;2.15;1.30;;;;;;;21.02;22.68;98327.06;5052017;28;20052;-89
2021/05/08 03:24:16;;;;;;;1.95;1.20;;;;;;;21.10;22.64;98326.63;5034049;28;20167;-90
2021/05/08 03:26:42;;;;;;;1.95;1.05;;;;;;;21.21;22.67;98332.94;5037183;28;20032;-89
2021/05/08 03:29:09;;;;;;;3.28;1.55;;;;;;;20.88;22.88;98327.94;5036636;28;20112;-90
2021/05/08 03:31:35;;;;;;;2.50;1.40;;;;;;;21.05;22.84;98331.84;5039785;28;20040;-90
2021/05/08 03:34:01;;;;;;;3.90;1.25;;;;;;;21.20;22.52;98350.09;5054852;28;20051;-89
2021/05/08 03:36:27;;;;;;;2.40;1.13;;;;;;;21.71;22.28;98352.94;5053777;28;20098;-89
2021/05/08 03:38:53;;;;;;;1.42;1.00;;;;;;;22.22;21.50;98357.69;5066611;28;20039;-89
2021/05/08 03:41:20;;;;;;;3.92;0.93;;;;;;;22.05;21.40;98358.66;5036274;28;20486;-90
2021/05/08 03:43:47;;;;;;;1.38;1.27;;;;;;;22.39;21.22;98362.31;5055498;28;20032;-90
2021/05/08 03:46:13;;;;;;;1.60;0.90;;;;;;;22.35;21.00;98367.16;5055059;28;20114;-90
2021/05/08 03:48:39;;;;;;;1.48;1.20;;;;;;;22.13;21.38;98362.97;5054536;28;20056;-89
2021/05/08 03:51:05;;;;;;;1.83;1.38;;;;;;;22.07;21.67;98364.63;5045074;28;20471;-90
2021/05/08 03:53:31;;;;;;;2.63;1.40;;;;;;;21.44;22.54;98371.50;5038439;28;20031;-89
2021/05/08 03:55:58;;;;;;;1.42;1.33;;;;;;;21.15;23.30;98370.06;5055439;28;20029;-90
2021/05/08 03:58:27;;;;;;;2.70;1.20;;;;;;;20.79;23.88;98369.44;5053395;28;20056;-90
2021/05/08 04:00:53;;;;;;;2.75;1.77;;;;;;;20.78;23.50;98367.84;5043126;28;20048;-90
2021/05/08 04:03:19;;;;;;;2.25;1.40;;;;;;;21.15;23.41;98379.25;5053772;28;20025;-90
2021/05/08 04:05:46;;;;;;;6.88;1.80;;;;;;;21.04;23.53;98375.72;5040093;28;20037;-89
2021/05/08 04:08:13;;;;;;;2.65;1.45;;;;;;;21.99;22.35;98379.88;5047600;28;20045;-89
2021/05/08 04:10:39;;;;;;;2.75;1.60;;;;;;;21.89;22.08;98391.97;5054181;28;20037;-89
2021/05/08 04:13:05;;;;;;;2.00;1.58;;;;;;;21.84;22.31;98392.41;5042510;28;20024;-90
2021/05/08 04:15:31;;;;;;;1.88;1.33;;;;;;;21.46;22.80;98390.63;5047542;28;20033;-89
2021/05/08 04:17:57;;;;;;;2.78;1.75;;;;;;;21.55;22.67;98397.38;5045432;28;20041;-89
2021/05/08 04:20:23;;;;;;;1.73;1.40;;;;;;;20.82;23.28;98401.31;5053760;28;20039;-88
2021/05/08 04:22:49;;;;;;;2.40;1.30;;;;;;;20.32;24.37;98403.44;5055353;28;20086;-89
2021/05/08 04:25:15;;;;;;;2.20;1.58;;;;;;;20.62;24.17;98409.34;5053410;28;20365;-90
2021/05/08 04:27:42;;;;;;;3.75;1.90;;;;;;;21.93;22.53;98407.50;5045818;28;20052;-90
2021/05/08 04:30:08;;;;;;;4.55;1.70;;;;;;;22.88;21.37;98416.97;5053559;28;20029;-90
2021/05/08 04:32:34;;;;;;;2.60;1.88;;;;;;;23.02;21.19;98419.59;5047569;28;20025;-89
2021/05/08 04:35:00;;;;;;;2.60;1.42;;;;;;;22.60;21.49;98423.69;5051031;28;20029;-89
2021/05/08 04:37:26;;;;;;;5.15;3.05;;;;;;;22.03;21.69;98423.38;5053896;28;20120;-89
2021/05/08 04:39:52;;;;;;;3.80;2.47;;;;;;;22.22;21.71;98427.59;5053425;28;20040;-89
2021/05/08 04:42:19;;;;;;;2.70;1.10;;;;;;;21.39;22.74;98436.19;5063835;28;20053;-89
2021/05/08 04:44:45;;;;;;;3.72;2.15;;;;;;;21.42;22.86;98434.56;5039762;28;20065;-89
2021/05/08 04:47:14;;;;;;;6.50;1.67;;;;;;;22.36;21.66;98438.66;5057700;28;20037;-89
2021/05/08 04:49:41;;;;;;;2.05;1.67;;;;;;;21.62;22.41;98439.22;5044623;28;20036;-89
2021/05/08 04:52:07;;;;;;;2.47;1.58;;;;;;;21.42;22.32;98438.16;5053020;28;20029;-89
2021/05/08 04:54:34;;;;;;;4.13;2.20;;;;;;;21.61;22.69;98448.03;5050308;28;20033;-89
2021/05/08 04:57:00;;;;;;;2.80;1.40;;;;;;;21.75;22.38;98453.53;5044422;28;20033;-89
2021/05/08 04:59:26;;;;;;;1.63;1.05;;;;;;;21.92;22.10;98456.22;5038507;28;20073;-89
2021/05/08 05:01:52;;;;;;;1.92;1.48;;;;;;;22.01;22.24;98450.16;5048993;28;20026;-89
2021/05/08 05:04:18;;;;;;;2.17;1.38;;;;;;;21.39;22.82;98447.34;5050677;28;20044;-89
2021/05/08 05:06:44;;;;;;;2.63;1.40;;;;;;;21.47;22.80;98451.69;5048871;28;20047;-89
2021/05/08 05:09:10;;;;;;;2.00;1.60;;;;;;;21.76;22.39;98449.50;5047381;28;20037;-89
2021/05/08 05:11:36;;;;;;;2.72;1.60;;;;;;;22.35;21.95;98459.47;5041138;28;20071;-89
2021/05/08 05:14:03;;;;;;;2.13;1.45;;;;;;;22.50;21.57;98460.91;5058421;28;20059;-89
2021/05/08 05:16:29;;;;;;;1.98;1.52;;;;;;;22.67;21.72;98462.00;5048071;28;20037;-89
2021/05/08 05:18:55;;;;;;;1.92;1.23;;;;;;;23.69;20.66;98462.75;5049656;28;20102;-89
2021/05/08 05:21:21;;;;;;;3.28;1.67;;;;;;;23.52;20.87;98463.81;5052629;28;20033;-89
2021/05/08 05:23:48;;;;;;;3.78;1.30;;;;;;;23.09;21.13;98472.72;5047505;28;20117;-89
2021/05/08 05:26:14;;;;;;;3.17;1.40;;;;;;;23.21;21.80;98477.78;5045420;28;20033;-90
2021/05/08 05:28:40;;;;;;;4.00;1.30;;;;;;;23.00;21.47;98468.84;5048133;28;20469;-90
2021/05/08 05:31:06;;;;;;;1.48;0.82;;;;;;;22.94;21.62;98482.50;5052116;28;20064;-89
2021/05/08 05:33:32;;;;;;;2.08;1.30;;;;;;;23.55;20.53;98474.19;5045767;28;20029;-90
2021/05/08 05:35:58;;;;;;;1.85;1.20;;;;;;;23.02;21.01;98472.81;5030643;28;20026;-89
2021/05/08 05:38:25;;;;;;;1.77;1.02;;;;;;;22.33;21.89;98483.47;5052656;28;20032;-89
2021/05/08 05:40:54;;;;;;;2.63;1.20;;;;;;;22.37;21.79;98478.63;5051875;28;20036;-89
2021/05/08 05:43:21;;;;;;;1.80;1.10;;;;;;;22.41;21.69;98487.78;5049732;28;20045;-90
2021/05/08 05:45:48;;;;;;;1.15;0.73;;;;;;;23.30;21.00;98491.28;5049154;28;20036;-90
2021/05/08 05:48:14;;;;;;;1.42;0.70;;;;;;;22.80;21.30;98491.03;5044147;28;20034;-89
2021/05/08 05:50:43;;;;;;;1.48;1.15;;;;;;;22.96;21.73;98496.09;5047980;28;20025;-90
2021/05/08 05:53:09;;;;;;;2.25;1.40;;;;;;;23.66;20.64;98488.84;5050376;28;20029;-90
2021/05/08 05:55:36;;;;;;;1.00;0.90;;;;;;;24.24;20.06;98488.41;5025142;28;20030;-90
2021/05/08 05:58:02;;;;;;;1.58;1.13;;;;;;;24.48;19.74;98489.22;5044298;28;20402;-91
2021/05/08 06:00:28;;;;;;;4.40;1.42;;;;;;;24.60;19.22;98488.59;5051804;28;20498;-90
2021/05/08 06:02:55;;;;;;;2.55;1.30;;;;;;;24.53;19.27;98485.91;5046399;28;20044;-90
2021/05/08 06:05:21;;;;;;;1.48;0.77;;;;;;;23.75;20.46;98489.94;5038376;28;20529;-91
2021/05/08 06:07:48;;;;;;;1.55;0.85;;;;;;;24.23;20.10;98484.00;5056120;28;20041;-91
2021/05/08 06:10:15;;;;;;;2.42;0.70;;;;;;;24.41;20.09;98490.13;5046096;28;20371;-90
2021/05/08 06:12:41;;;;;;;1.27;1.00;;;;;;;23.50;20.31;98497.09;5045651;28;20125;-91
2021/05/08 06:15:10;;;;;;;1.88;1.02;;;;;;;23.25;20.73;98494.53;5031565;28;20033;-90
2021/05/08 06:17:37;;;;;;;1.98;0.80;;;;;;;23.35;20.54;98499.25;5045570;28;20063;-91
2021/05/08 06:20:04;;;;;;;2.45;0.80;;;;;;;23.26;20.96;98501.75;5043705;28;20477;-90
2021/05/08 06:22:31;;;;;;;1.90;1.00;;;;;;;23.24;20.78;98502.16;5031221;28;20371;-90
2021/05/08 06:24:57;;;;;;;1.80;0.70;;;;;;;23.18;20.96;98506.63;5047566;28;20055;-91
2021/05/08 06:27:23;;;;;;;0.88;0.60;;;;;;;22.29;21.93;98505.88;5050137;28;20040;-91
2021/05/08 06:29:50;;;;;;;1.75;0.90;;;;;;;21.95;22.32;98507.72;5046559;28;20497;-90
2021/05/08 06:32:16;;;;;;;0.77;0.70;;;;;;;21.73;22.29;98500.63;5043569;28;20030;-90
2021/05/08 06:34:42;;;;;;;1.38;1.13;;;;;;;22.50;21.60;98494.50;5048575;28;20052;-89
2021/05/08 06:37:08;;;;;;;2.08;0.95;;;;;;;23.65;20.39;98493.66;5045106;28;20032;-90
2021/05/08 06:39:35;;;;;;;1.13;0.82;;;;;;;24.76;19.40;98473.88;5051146;28;20033;-90
2021/05/08 06:42:01;;;;;;;1.38;0.80;;;;;;;24.40;19.38;98501.78;5048213;28;20520;-91
2021/05/08 06:44:27;;;;;;;0.82;0.70;;;;;;;24.61;19.86;98498.59;5056048;28;20031;-87
2021/05/08 06:46:57;;;;;;;1.50;0.90;;;;;;;25.54;18.68;98502.06;5045478;28;20039;-88
2021/05/08 06:49:23;;;;;;;1.25;0.82;;;;;;;24.52;20.35;98503.97;5047499;28;20033;-90
2021/05/08 06:51:49;;;;;;;1.50;1.00;;;;;;;23.94;20.43;98511.66;5044250;28;20032;-91
2021/05/08 06:54:16;;;;;;;2.60;1.63;;;;;;;23.31;20.16;98495.69;5051950;28;20033;-90
2021/05/08 06:56:42;;;;;;;7.75;2.47;;;;;;;23.73;20.89;98500.78;5027553;28;20478;-91
2021/05/08 06:59:08;;;;;;;2.97;1.23;;;;;;;24.22;19.80;98502.06;5030439;28;20079;-91
2021/05/08 07:01:34;;;;;;;3.67;1.58;;;;;;;24.26;19.27;98496.41;5046386;28;20048;-90
2021/05/08 07:04:00;;;;;;;1.77;1.15;;;;;;;24.18;18.95;98509.72;5045689;28;20021;-90
2021/05/08 07:06:26;;;;;;;1.92;0.88;;;;;;;24.02;19.80;98510.34;5049270;28;20091;-89
2021/05/08 07:08:53;;;;;;;2.25;1.00;;;;;;;23.43;19.85;98512.00;5041210;28;20083;-89
2021/05/08 07:11:20;;;;;;;2.72;1.15;;;;;;;24.37;19.21;98508.22;5037501;28;21160;-89
2021/05/08 07:13:48;;;;;;;1.27;0.95;;;;;;;23.21;20.13;98516.22;5042749;28;20490;-89
2021/05/08 07:16:14;;;;;;;1.85;1.00;;;;;;;22.65;21.27;98515.59;5042701;28;20105;-89
2021/05/08 07:18:40;;;;;;;0.85;0.80;;;;;;;23.03;20.73;98513.63;5036361;28;20084;-89
2021/05/08 07:21:07;;;;;;;2.25;0.88;;;;;;;23.02;20.38;98528.03;5044475;28;20040;-90
2021/05/08 07:23:33;;;;;;;1.00;0.90;;;;;;;23.19;20.52;98519.44;5039379;28;20022;-90
2021/05/08 07:25:59;;;;;;;1.27;1.02;;;;;;;22.68;20.82;98517.53;5051531;28;20032;-89
2021/05/08 07:28:25;;;;;;;2.17;1.00;;;;;;;23.64;20.00;98511.69;5051942;28;20044;-88
2021/05/08 07:30:54;;;;;;;3.00;1.80;;;;;;;23.93;19.24;98507.28;5050156;28;20041;-92
2021/05/08 07:33:22;;;;;;;4.32;1.80;;;;;;;24.97;19.02;98510.03;5045490;28;20443;-92
2021/05/08 07:35:49;;;;;;;2.42;1.33;;;;;;;25.65;18.88;98515.94;5040313;28;20033;-88
2021/05/08 07:38:16;;;;;;;4.15;1.88;;;;;;;25.91;18.19;98509.28;5040513;28;20401;-88
2021/05/08 07:40:50;;;;;;;2.50;0.95;;;;;;;26.12;18.29;98513.66;5041399;28;20087;-87
2021/05/08 07:43:17;;;;;;;0.65;0.60;;;;;;;26.23;18.03;98512.22;5045695;28;20498;-86
2021/05/08 07:45:44;;;;;;;3.38;0.70;;;;;;;26.80;18.22;98505.16;5042636;28;20127;-89
2021/05/08 07:48:10;;;;;;;2.30;0.95;;;;;;;26.82;17.48;98511.16;5046501;28;20056;-90
2021/05/08 07:50:36;;;;;;;3.05;1.00;;;;;;;27.36;17.11;98509.25;5046474;28;20120;-90
2021/05/08 07:53:02;;;;;;;1.60;0.80;;;;;;;27.03;16.65;98504.94;5049799;28;20037;-91
2021/05/08 07:55:29;;;;;;;1.00;0.80;;;;;;;26.01;17.93;98506.25;5044833;28;20033;-91
2021/05/08 07:57:55;;;;;;;1.80;0.70;;;;;;;25.75;18.96;98498.81;5037897;28;20075;-90
2021/05/08 08:00:22;;;;;;;0.90;0.60;;;;;;;26.19;17.90;98503.03;5041125;28;20067;-89
2021/05/08 08:02:49;;;;;;;1.73;1.08;;;;;;;27.16;17.66;98508.63;5035374;28;20118;-89
2021/05/08 08:05:15;;;;;;;1.52;0.50;;;;;;;25.29;17.24;98513.00;5047935;28;20498;-88
2021/05/08 08:07:45;;;;;;;2.30;0.60;;;;;;;25.30;18.13;98500.53;5038330;28;20371;-89
2021/05/08 08:10:11;;;;;;;1.95;0.30;;;;;;;24.45;18.20;98516.13;5046893;28;20040;-88
2021/05/08 08:12:41;;;;;;;1.17;0.60;;;;;;;24.92;17.79;98504.91;5042111;28;20112;-88
2021/05/08 08:15:09;;;;;;;0.40;0.30;;;;;;;25.18;17.73;98524.44;5048309;28;20035;-89
2021/05/08 08:17:36;;;;;;;3.42;0.80;;;;;;;24.78;17.56;98522.81;5053160;28;20033;-89
2021/05/08 08:20:11;;;;;;;1.20;0.70;;;;;;;24.92;17.29;98516.16;5032829;28;20391;-90
2021/05/08 08:22:41;;;;;;;0.70;0.70;;;;;;;25.23;17.37;98518.34;5040308;28;20029;-92
2021/05/08 08:25:08;;;;;;;0.90;0.60;;;;;;;24.89;17.53;98514.19;5042226;28;20183;-88
2021/05/08 08:27:35;;;;;;;1.08;0.40;;;;;;;25.25;17.47;98526.34;5036850;28;20108;-93
2021/05/08 08:30:03;;;;;;;0.55;0.40;;;;;;;24.42;18.08;98513.38;5046519;28;20062;-92
2021/05/08 08:32:29;;;;;;;1.10;0.47;;;;;;;23.04;19.11;98518.00;5050287;28;20164;-93
2021/05/08 08:34:55;;;;;;;1.02;0.50;;;;;;;22.01;21.87;98532.03;5045005;28;20045;-92
2021/05/08 08:37:22;;;;;;;0.63;0.40;;;;;;;21.97;20.72;98534.06;5044497;28;20036;-93
2021/05/08 08:39:48;;;;;;;0.73;0.50;;;;;;;22.59;21.36;98508.81;5045724;28;20099;-93
2021/05/08 08:42:14;;;;;;;0.82;0.60;;;;;;;24.43;18.56;98510.16;5051299;28;20045;-89
2021/05/08 08:44:40;;;;;;;0.57;0.50;;;;;;;24.75;17.79;98518.00;5050810;28;20048;-93
2021/05/08 08:49:56;;;;;;;0.45;0.40;;;;;;;25.55;16.22;98523.34;5045898;28;20040;-94
2021/05/08 08:52:22;;;;;;;1.75;0.60;;;;;;;24.33;18.00;98530.75;5047892;28;20041;-93
2021/05/08 08:54:48;;;;;;;3.10;0.90;;;;;;;24.72;17.55;98525.28;5052866;28;20150;-93
2021/05/08 08:57:18;;;;;;;1.55;0.57;;;;;;;25.63;17.23;98521.97;5041702;28;20041;-93
2021/05/08 08:59:46;;;;;;;0.68;0.50;;;;;;;25.10;17.90;98510.97;5048219;28;20025;-93
2021/05/08 09:02:12;;;;;;;0.80;0.52;;;;;;;25.26;17.81;98514.66;5044335;28;20028;-93
2021/05/08 09:04:39;;;;;;;1.42;0.70;;;;;;;26.04;17.65;98516.63;5044995;28;20083;-94
2021/05/08 09:07:06;;;;;;;1.23;0.55;;;;;;;25.42;16.50;98508.31;5047300;28;20051;-93
2021/05/08 09:09:33;;;;;;;1.00;0.50;;;;;;;25.19;17.07;98536.50;5047404;28;20095;-93
2021/05/08 09:11:59;;;;;;;0.50;0.50;;;;;;;25.99;16.42;98522.00;5030306;28;20029;-94
2021/05/08 09:14:36;;;;;;;1.73;0.50;;;;;;;24.77;17.86;98526.84;5044183;28;20112;-94
2021/05/08 09:17:13;;;;;;;0.85;0.50;;;;;;;24.88;16.63;98532.28;5046778;28;20065;-93
2021/05/08 09:19:45;;;;;;;1.08;0.70;;;;;;;25.12;16.52;98520.56;5043078;28;20036;-93
2021/05/08 09:22:35;;;;;;;1.95;0.40;;;;;;;24.05;17.86;98531.97;5048176;28;20041;-94
2021/05/08 09:25:10;;;;;;;2.83;0.63;;;;;;;24.96;17.58;98542.94;5046369;28;20064;-93
2021/05/08 09:27:45;;;;;;;1.08;0.60;;;;;;;22.66;19.37;98545.16;5049503;28;20418;-93
2021/05/08 09:30:15;;;;;;;1.15;0.55;;;;;;;23.03;19.10;98543.63;5047223;28;20422;-92
2021/05/08 09:32:47;;;;;;;1.63;1.20;;;;;;;22.58;18.76;98545.63;5028288;28;20063;-93
2021/05/08 09:35:20;;;;;;;1.83;0.70;;;;;;;23.35;18.34;98555.31;5040476;28;20044;-86
2021/05/08 09:37:49;;;;;;;0.75;0.32;;;;;;;22.38;19.10;98556.56;5045063;28;20410;-90
2021/05/08 09:40:24;;;;;;;1.10;0.40;;;;;;;21.94;20.11;98564.84;5037425;28;20438;-85
2021/05/08 09:42:57;;;;;;;4.43;0.80;;;;;;;21.61;21.14;98554.22;5045499;28;20033;-86
2021/05/08 09:45:25;;;;;;;1.15;0.70;;;;;;;22.61;19.70;98544.81;5044673;28;20044;-90
2021/05/08 09:47:52;;;;;;;1.95;0.70;;;;;;;24.90;18.61;98532.63;5032142;28;20198;-86
2021/05/08 09:50:24;;;;;;;1.92;0.60;;;;;;;24.65;17.58;98528.22;5054292;28;20040;-86
2021/05/08 09:52:52;;;;;;;1.55;0.75;;;;;;;23.51;17.32;98543.50;5045060;28;20033;-85
2021/05/08 09:55:20;;;;;;;0.95;0.52;;;;;;;23.45;18.48;98537.59;5045756;28;20029;-91
2021/05/08 09:58:04;;;;;;;0.57;0.50;;;;;;;23.42;18.20;98549.63;5046615;28;20070;-87
2021/05/08 10:00:36;;;;;;;2.05;0.40;;;;;;;24.18;18.68;98534.22;5031144;28;20036;-86
2021/05/08 10:03:07;;;;;;;0.47;0.40;;;;;;;23.78;18.38;98539.53;5043074;28;20037;-89
2021/05/08 10:05:36;;;;;;;0.85;0.50;;;;;;;25.50;18.17;98529.47;5050659;28;20033;-87
2021/05/08 10:08:03;;;;;;;1.02;0.77;;;;;;;25.00;17.31;98518.38;5036103;28;20030;-87
2021/05/08 10:10:29;;;;;;;0.93;0.60;;;;;;;25.27;16.60;98533.13;5044030;28;20155;-87
2021/05/08 10:12:56;;;;;;;0.63;0.57;;;;;;;23.99;18.76;98544.84;5042045;28;20478;-89
2021/05/08 10:15:23;;;;;;;2.25;0.80;;;;;;;23.72;18.99;98540.44;5046490;28;20240;-87
2021/05/08 10:17:51;;;;;;;0.80;0.60;;;;;;;24.16;19.04;98548.66;5044344;28;20478;-87
2021/05/08 10:20:19;;;;;;;0.95;0.50;;;;;;;24.09;17.59;98545.94;5039677;28;20072;-87
2021/05/08 10:23:04;;;;;;;2.58;0.63;;;;;;;24.94;16.92;98528.53;5045953;28;20587;-88
2021/05/08 10:25:33;;;;;;;0.98;0.65;;;;;;;24.47;17.38;98530.53;5035268;28;20123;-88
2021/05/08 10:28:02;;;;;;;0.50;0.50;;;;;;;25.31;17.04;98536.66;5044972;28;20026;-87
2021/05/08 10:30:45;;;;;;;0.47;0.40;;;;;;;26.45;16.85;98540.63;5043990;28;20037;-88
2021/05/08 10:33:17;;;;;;;1.77;0.60;;;;;;;26.02;16.29;98538.78;5040450;28;20048;-88
2021/05/08 10:35:51;;;;;;;1.65;0.57;;;;;;;25.24;17.70;98538.81;5041960;28;20041;-87
2021/05/08 10:38:27;;;;;;;1.75;1.00;;;;;;;25.25;16.34;98529.94;5041298;28;20391;-87
2021/05/08 10:40:55;;;;;;;1.30;0.43;;;;;;;25.26;16.82;98527.91;5038195;28;20088;-87
2021/05/08 10:43:43;;;;;;;0.98;0.40;;;;;;;25.50;16.58;98523.88;5042694;28;20041;-87
2021/05/08 10:46:14;;;;;;;1.73;0.50;;;;;;;25.73;16.64;98529.41;5039474;28;20030;-88
2021/05/08 10:49:00;;;;;;;;;;;;;;;26.30;15.10;98520.47;5040687;28;20367;-87
2021/05/08 10:51:52;;;;;;;1.17;0.75;;;;;;;27.80;14.50;98521.69;5044868;28;19927;-87
2021/05/08 10:54:39;;;;;;;0.50;0.50;;;;;;;26.20;16.21;98529.97;5041552;28;20033;-87
2021/05/08 10:57:40;;;;;;;1.10;0.40;;;;;;;26.22;16.04;98515.44;5035806;28;20441;-87
2021/05/08 11:00:09;;;;;;;0.50;0.50;;;;;;;25.23;17.45;98529.56;4965890;28;20066;-87
2021/05/08 11:02:44;;;;;;;0.65;0.50;;;;;;;25.18;17.08;98540.53;5028379;28;20037;-87
2021/05/08 11:05:24;;;;;;;0.88;0.50;;;;;;;25.53;17.13;98544.69;5042650;28;20104;-87
2021/05/08 11:07:50;;;;;;;1.88;0.80;;;;;;;25.71;15.87;98517.78;5043866;28;20033;-87
2021/05/08 11:10:36;;;;;;;0.82;0.50;;;;;;;26.28;15.09;98531.38;5045531;28;20035;-87
2021/05/08 11:13:05;;;;;;;2.05;0.98;;;;;;;27.18;16.56;98526.69;5040596;28;20115;-87
2021/05/08 11:18:32;;;;;;;1.15;0.88;;;;;;;28.23;13.39;98524.03;5047223;28;20036;-88
2021/05/08 11:21:13;;;;;;;1.02;0.60;;;;;;;27.85;14.51;98521.94;5046610;28;20036;-88
2021/05/08 11:23:46;;;;;;;1.70;0.82;;;;;;;27.30;14.58;98517.50;5047865;28;20509;-88
2021/05/08 11:26:33;;;;;;;1.90;1.00;;;;;;;27.24;15.33;98516.44;5048945;28;20029;-85
2021/05/08 11:29:02;;;;;;;0.70;0.60;;;;;;;27.31;15.53;98523.91;5041693;28;20064;-85
2021/05/08 11:31:45;;;;;;;1.23;0.70;;;;;;;26.16;14.86;98515.19;5020303;28;20038;-85
2021/05/08 11:34:16;;;;;;;0.70;0.70;;;;;;;25.57;15.75;98518.09;5035868;28;20058;-85
2021/05/08 11:36:58;;;;;;;0.77;0.73;;;;;;;24.81;17.11;98515.56;5046920;28;20033;-85
2021/05/08 11:39:38;;;;;;;1.08;0.50;;;;;;;24.16;17.43;98531.81;5050254;28;20629;-86
2021/05/08 11:42:23;;;;;;;1.08;0.60;;;;;;;24.57;18.04;98526.75;5047401;28;20088;-84
2021/05/08 11:44:57;;;;;;;1.10;1.02;;;;;;;24.63;16.39;98530.66;5047821;28;20024;-85